createdAt,value
2022-12-10T00:01:51.033Z,34.70
2022-12-10T00:04:18.512Z,36.60
2022-12-10T00:06:46.504Z,34.13
2022-12-10T00:09:17.768Z,34.93
2022-12-10T00:11:45.390Z,34.80
2022-12-10T00:14:14.214Z,33.70
2022-12-10T00:16:42.143Z,34.20
2022-12-10T00:19:09.834Z,33.13
2022-12-10T00:21:38.456Z,31.83
2022-12-10T00:24:07.289Z,34.07
2022-12-10T00:26:38.365Z,34.10
2022-12-10T00:29:08.707Z,33.10
2022-12-10T00:31:38.909Z,34.03
2022-12-10T00:34:09.697Z,33.20
2022-12-10T00:36:43.998Z,32.63
2022-12-10T00:39:14.891Z,33.43
2022-12-10T00:41:42.400Z,33.03
2022-12-10T00:44:10.304Z,33.07
2022-12-10T00:46:37.958Z,32.27
2022-12-10T00:49:05.797Z,32.17
2022-12-10T00:51:33.337Z,34.30
2022-12-10T00:54:01.174Z,33.37
2022-12-10T00:56:32.166Z,32.83
2022-12-10T00:59:00.846Z,32.30
2022-12-10T01:01:38.120Z,32.83
2022-12-10T01:04:13.966Z,32.27
2022-12-10T01:06:52.668Z,33.57
2022-12-10T01:09:24.930Z,32.57
2022-12-10T01:11:54.489Z,32.23
2022-12-10T01:14:30.127Z,34.50
2022-12-10T01:17:01.236Z,33.13
2022-12-10T01:19:28.626Z,32.97
2022-12-10T01:21:57.316Z,33.73
2022-12-10T01:24:27.985Z,32.33
2022-12-10T01:26:59.009Z,32.20
2022-12-10T01:29:27.764Z,32.70
2022-12-10T01:31:57.964Z,33.23
2022-12-10T01:34:26.612Z,31.80
2022-12-10T01:36:55.418Z,32.93
2022-12-10T01:39:24.219Z,31.07
2022-12-10T01:41:56.095Z,30.07
2022-12-10T01:44:23.423Z,32.40
2022-12-10T01:46:54.731Z,31.43
2022-12-10T01:49:26.747Z,31.00
2022-12-10T01:51:57.144Z,30.20
2022-12-10T01:54:30.180Z,30.50
2022-12-10T01:57:14.327Z,30.93
2022-12-10T01:59:42.966Z,30.17
2022-12-10T02:02:42.136Z,30.97
2022-12-10T02:05:09.740Z,31.60
2022-12-10T02:08:15.176Z,31.07
2022-12-10T02:11:14.834Z,31.23
2022-12-10T02:13:51.822Z,31.13
2022-12-10T02:16:35.783Z,30.53
2022-12-10T02:19:56.380Z,31.13
2022-12-10T02:22:27.198Z,31.17
2022-12-10T02:24:56.909Z,30.73
2022-12-10T02:27:47.944Z,28.37
2022-12-10T02:30:15.923Z,30.63
2022-12-10T02:32:45.902Z,29.57
2022-12-10T02:35:26.930Z,29.53
2022-12-10T02:38:02.566Z,29.67
2022-12-10T02:40:35.090Z,29.47
2022-12-10T02:43:02.598Z,33.03
2022-12-10T02:45:31.907Z,32.80
2022-12-10T02:48:02.608Z,33.93
2022-12-10T02:50:30.324Z,32.67
2022-12-10T02:52:57.802Z,32.90
2022-12-10T02:55:25.339Z,32.37
2022-12-10T02:58:51.245Z,32.53
2022-12-10T03:01:24.216Z,31.83
2022-12-10T03:03:58.248Z,31.37
2022-12-10T03:06:39.771Z,32.17
2022-12-10T03:09:21.617Z,31.93
2022-12-10T03:11:59.365Z,31.93
2022-12-10T03:14:32.681Z,31.73
2022-12-10T03:17:02.407Z,30.93
2022-12-10T03:19:44.424Z,32.10
2022-12-10T03:22:14.536Z,31.53
2022-12-10T03:24:43.919Z,33.27
2022-12-10T03:27:13.795Z,31.03
2022-12-10T03:29:51.628Z,29.53
2022-12-10T03:32:22.599Z,30.77
2022-12-10T03:34:53.237Z,28.47
2022-12-10T03:37:23.040Z,27.77
2022-12-10T03:39:50.837Z,28.67
2022-12-10T03:42:18.368Z,28.40
2022-12-10T03:44:45.803Z,27.67
2022-12-10T03:47:15.763Z,25.27
2022-12-10T03:49:44.283Z,25.00
2022-12-10T03:52:12.444Z,25.53
2022-12-10T03:54:40.095Z,25.67
2022-12-10T03:57:07.924Z,25.50
2022-12-10T03:59:35.434Z,25.77
2022-12-10T04:02:02.917Z,26.23
2022-12-10T04:04:30.463Z,25.37
2022-12-10T04:06:57.977Z,23.17
2022-12-10T04:09:25.400Z,24.60
2022-12-10T04:11:58.358Z,25.13
2022-12-10T04:14:45.780Z,23.53
2022-12-10T04:17:13.991Z,23.90
2022-12-10T04:19:41.555Z,24.27
2022-12-10T04:22:29.129Z,23.67
2022-12-10T04:25:15.311Z,23.63
2022-12-10T04:27:42.801Z,22.93
2022-12-10T04:30:13.492Z,23.17
2022-12-10T04:32:41.043Z,23.77
2022-12-10T04:35:09.508Z,22.37
2022-12-10T04:37:37.304Z,22.00
2022-12-10T04:40:06.861Z,22.93
2022-12-10T04:42:35.087Z,22.20
2022-12-10T04:45:02.670Z,22.57
2022-12-10T04:47:30.087Z,21.17
2022-12-10T04:49:57.469Z,22.17
2022-12-10T04:52:24.919Z,22.43
2022-12-10T04:54:52.376Z,21.57
2022-12-10T04:57:19.855Z,22.13
2022-12-10T04:59:47.310Z,21.73
2022-12-10T05:02:14.897Z,22.57
2022-12-10T05:04:42.538Z,22.60
2022-12-10T05:07:10.124Z,22.87
2022-12-10T05:09:39.039Z,23.70
2022-12-10T05:12:06.811Z,23.67
2022-12-10T05:14:34.265Z,23.43
2022-12-10T05:17:01.804Z,23.67
2022-12-10T05:19:29.255Z,23.50
2022-12-10T05:22:15.266Z,23.60
2022-12-10T05:24:42.778Z,22.97
2022-12-10T05:27:10.201Z,23.00
2022-12-10T05:29:37.632Z,24.20
2022-12-10T05:32:05.836Z,23.47
2022-12-10T05:34:33.513Z,24.10
2022-12-10T05:37:01.125Z,25.03
2022-12-10T05:39:28.524Z,24.17
2022-12-10T05:41:56.159Z,24.53
2022-12-10T05:44:23.792Z,26.90
2022-12-10T05:46:51.238Z,58.97
2022-12-10T05:49:18.726Z,53.57
2022-12-10T05:51:46.125Z,55.70
2022-12-10T05:54:13.559Z,41.47
2022-12-10T05:56:41.140Z,43.47
2022-12-10T05:59:12.984Z,31.13
2022-12-10T06:01:46.281Z,34.33
2022-12-10T06:04:15.457Z,33.57
2022-12-10T06:06:43.054Z,27.93
2022-12-10T06:09:14.878Z,30.03
2022-12-10T06:11:42.592Z,33.53
2022-12-10T06:14:11.349Z,32.07
2022-12-10T06:16:41.777Z,30.17
2022-12-10T06:19:09.313Z,29.53
2022-12-10T06:21:36.881Z,28.27
2022-12-10T06:24:04.411Z,26.80
2022-12-10T06:26:31.967Z,38.17
2022-12-10T06:28:59.530Z,36.10
2022-12-10T06:31:27.131Z,32.97
2022-12-10T06:33:55.763Z,25.57
2022-12-10T06:36:23.252Z,31.23
2022-12-10T06:38:50.673Z,24.17
2022-12-10T06:41:21.620Z,26.03
2022-12-10T06:43:50.228Z,25.03
2022-12-10T06:46:21.000Z,27.43
2022-12-10T06:48:48.751Z,29.20
2022-12-10T06:51:16.401Z,36.47
2022-12-10T06:53:44.756Z,25.20
2022-12-10T06:56:19.808Z,24.57
2022-12-10T06:58:48.433Z,27.17
2022-12-10T07:01:21.617Z,26.67
2022-12-10T07:03:57.316Z,24.80
2022-12-10T07:06:26.316Z,26.03
2022-12-10T07:08:53.816Z,23.30
2022-12-10T07:11:23.873Z,23.80
2022-12-10T07:13:52.312Z,24.33
2022-12-10T07:16:26.902Z,25.40
2022-12-10T07:18:56.835Z,21.87
2022-12-10T07:21:31.509Z,23.07
2022-12-10T07:24:05.628Z,25.07
2022-12-10T07:26:37.032Z,20.67
2022-12-10T07:29:06.794Z,22.80
2022-12-10T07:31:35.352Z,23.90
2022-12-10T07:34:02.855Z,24.27
2022-12-10T07:36:30.688Z,25.70
2022-12-10T07:38:58.508Z,22.97
2022-12-10T07:41:28.884Z,37.27
2022-12-10T07:43:56.304Z,28.80
2022-12-10T07:46:30.554Z,24.10
2022-12-10T07:49:01.520Z,25.27
2022-12-10T07:51:30.492Z,24.70
2022-12-10T07:53:58.397Z,23.67
2022-12-10T07:56:26.621Z,23.00
2022-12-10T07:58:55.031Z,24.73
2022-12-10T08:01:26.665Z,25.80
2022-12-10T08:03:59.725Z,25.87
2022-12-10T08:06:30.283Z,23.50
2022-12-10T08:09:00.864Z,27.23
2022-12-10T08:11:29.509Z,24.53
2022-12-10T08:13:57.987Z,26.63
2022-12-10T08:16:29.608Z,28.03
2022-12-10T08:19:02.857Z,25.53
2022-12-10T08:21:33.323Z,31.97
2022-12-10T08:24:01.827Z,43.17
2022-12-10T08:26:33.042Z,31.13
2022-12-10T08:29:01.805Z,24.57
2022-12-10T08:31:34.319Z,24.13
2022-12-10T08:34:05.975Z,24.83
2022-12-10T08:36:33.451Z,25.40
2022-12-10T08:39:00.984Z,28.70
2022-12-10T08:41:28.418Z,34.47
2022-12-10T08:43:56.328Z,26.40
2022-12-10T08:46:24.420Z,27.33
2022-12-10T08:48:51.965Z,31.17
2022-12-10T08:51:21.394Z,43.63
2022-12-10T08:53:49.012Z,31.23
2022-12-10T08:56:16.565Z,29.87
2022-12-10T08:58:44.348Z,28.77
2022-12-10T09:01:17.785Z,30.57
2022-12-10T09:03:46.401Z,35.90
2022-12-10T09:06:18.231Z,30.20
2022-12-10T09:08:46.412Z,31.60
2022-12-10T09:11:31.415Z,31.67
2022-12-10T09:13:59.684Z,34.97
2022-12-10T09:16:35.871Z,33.27
2022-12-10T09:19:05.527Z,30.27
2022-12-10T09:21:33.544Z,26.43
2022-12-10T09:24:01.023Z,26.47
2022-12-10T09:26:28.767Z,26.33
2022-12-10T09:28:56.584Z,25.73
2022-12-10T09:31:23.995Z,35.47
2022-12-10T09:33:53.854Z,34.47
2022-12-10T09:36:22.663Z,32.87
2022-12-10T09:38:51.193Z,28.43
2022-12-10T09:41:51.325Z,27.07
2022-12-10T09:44:27.617Z,30.37
2022-12-10T09:47:04.931Z,28.33
2022-12-10T09:50:26.539Z,32.23
2022-12-10T09:52:56.132Z,24.67
2022-12-10T09:55:32.440Z,24.43
2022-12-10T09:58:01.389Z,24.70
2022-12-10T10:00:40.768Z,22.57
2022-12-10T10:03:16.215Z,21.80
2022-12-10T10:05:49.636Z,25.47
2022-12-10T10:08:42.745Z,35.60
2022-12-10T10:11:19.867Z,32.37
2022-12-10T10:14:11.100Z,34.77
2022-12-10T10:16:49.312Z,28.67
2022-12-10T10:19:27.141Z,23.37
2022-12-10T10:21:55.081Z,43.53
2022-12-10T10:24:41.229Z,35.33
2022-12-10T10:27:23.536Z,23.43
2022-12-10T10:29:57.830Z,50.17
2022-12-10T10:32:54.037Z,33.33
2022-12-10T10:35:35.467Z,29.63
2022-12-10T10:38:18.980Z,34.97
2022-12-10T10:40:52.247Z,28.30
2022-12-10T10:43:29.698Z,33.77
2022-12-10T10:46:13.191Z,42.17
2022-12-10T10:48:41.216Z,37.33
2022-12-10T10:51:17.208Z,42.17
2022-12-10T10:54:05.710Z,26.90
2022-12-10T10:56:44.725Z,32.17
2022-12-10T10:59:16.964Z,31.73
2022-12-10T11:02:03.077Z,30.27
2022-12-10T11:04:47.198Z,32.57
2022-12-10T11:07:34.997Z,27.17
2022-12-10T11:10:24.352Z,41.20
2022-12-10T11:12:58.045Z,31.20
2022-12-10T11:15:29.890Z,31.87
2022-12-10T11:17:57.866Z,26.17
2022-12-10T11:20:41.743Z,25.80
2022-12-10T11:23:13.721Z,36.70
2022-12-10T11:26:20.294Z,42.73
2022-12-10T11:29:24.407Z,26.63
2022-12-10T11:32:11.156Z,39.47
2022-12-10T11:34:44.511Z,48.17
2022-12-10T11:37:31.396Z,40.73
2022-12-10T11:40:28.943Z,44.00
2022-12-10T11:43:27.777Z,44.83
2022-12-10T11:46:53.254Z,38.50
2022-12-10T11:49:20.594Z,33.23
2022-12-10T11:52:05.962Z,27.73
2022-12-10T11:54:58.615Z,30.27
2022-12-10T11:57:57.575Z,30.30
2022-12-10T12:00:29.302Z,30.30
2022-12-10T12:03:38.065Z,30.07
2022-12-10T12:06:26.995Z,25.97
2022-12-10T12:09:23.135Z,30.80
2022-12-10T12:12:16.660Z,26.87
2022-12-10T12:14:45.689Z,26.63
2022-12-10T12:17:32.324Z,27.30
2022-12-10T12:20:07.213Z,28.13
2022-12-10T12:22:44.573Z,27.63
2022-12-10T12:25:39.690Z,28.70
2022-12-10T12:28:13.528Z,27.87
2022-12-10T12:30:45.257Z,27.60
2022-12-10T12:33:25.494Z,27.43
2022-12-10T12:36:01.372Z,26.97
2022-12-10T12:38:51.388Z,26.53
2022-12-10T12:42:07.959Z,27.57
2022-12-10T12:45:10.204Z,27.97
2022-12-10T12:48:18.664Z,27.40
2022-12-10T12:51:00.098Z,26.23
2022-12-10T12:53:33.318Z,27.33
2022-12-10T12:56:32.321Z,26.07
2022-12-10T12:59:13.849Z,27.93
2022-12-10T13:01:51.033Z,27.33
2022-12-10T13:04:19.215Z,29.53
2022-12-10T13:07:13.178Z,31.10
2022-12-10T13:09:53.324Z,31.20
2022-12-10T13:12:30.940Z,27.20
2022-12-10T13:15:25.131Z,28.30
2022-12-10T13:18:19.830Z,27.60
2022-12-10T13:21:18.393Z,27.73
2022-12-10T13:23:53.958Z,29.63
2022-12-10T13:26:31.238Z,26.43
2022-12-10T13:29:13.678Z,28.53
2022-12-10T13:31:41.383Z,25.80
2022-12-10T13:34:35.294Z,27.47
2022-12-10T13:37:02.645Z,28.37
2022-12-10T13:39:47.558Z,42.13
2022-12-10T13:42:33.149Z,32.83
2022-12-10T13:45:07.744Z,31.67
2022-12-10T13:47:38.100Z,29.63
2022-12-10T13:50:19.938Z,29.23
2022-12-10T13:53:15.684Z,29.23
2022-12-10T13:56:27.455Z,33.10
2022-12-10T13:59:06.774Z,33.20
2022-12-10T14:01:56.085Z,34.50
2022-12-10T14:04:44.564Z,45.63
2022-12-10T14:07:14.427Z,36.30
2022-12-10T14:09:52.558Z,38.23
2022-12-10T14:12:41.244Z,32.47
2022-12-10T14:15:25.488Z,34.67
2022-12-10T14:18:03.728Z,34.23
2022-12-10T14:20:34.223Z,30.70
2022-12-10T14:23:42.533Z,31.30
2022-12-10T14:26:20.697Z,32.43
2022-12-10T14:29:08.313Z,39.60
2022-12-10T14:31:45.433Z,31.93
2022-12-10T14:34:18.901Z,29.67
2022-12-10T14:36:50.754Z,27.10
2022-12-10T14:39:30.843Z,27.87
2022-12-10T14:42:02.815Z,36.77
2022-12-10T14:44:31.378Z,28.73
2022-12-10T14:47:17.959Z,38.83
2022-12-10T14:49:49.321Z,36.27
2022-12-10T14:52:21.756Z,33.93
2022-12-10T14:54:49.987Z,27.77
2022-12-10T14:57:32.918Z,28.20
2022-12-10T15:00:10.732Z,30.10
2022-12-10T15:02:45.585Z,31.67
2022-12-10T15:05:24.698Z,27.03
2022-12-10T15:07:58.186Z,29.13
2022-12-10T15:10:42.118Z,33.43
2022-12-10T15:13:26.009Z,32.03
2022-12-10T15:15:54.993Z,30.93
2022-12-10T15:18:34.589Z,31.67
2022-12-10T15:21:21.778Z,30.30
2022-12-10T15:23:50.106Z,28.93
2022-12-10T15:26:26.298Z,34.30
2022-12-10T15:29:30.342Z,30.13
2022-12-10T15:32:04.845Z,29.03
2022-12-10T15:34:41.271Z,28.10
2022-12-10T15:37:23.364Z,26.30
2022-12-10T15:39:58.790Z,26.40
2022-12-10T15:42:32.844Z,28.53
2022-12-10T15:45:12.684Z,30.37
2022-12-10T15:47:40.317Z,27.87
2022-12-10T15:50:08.273Z,29.53
2022-12-10T15:52:36.741Z,32.77
2022-12-10T15:55:04.638Z,41.40
2022-12-10T15:57:50.277Z,40.00
2022-12-10T16:00:25.717Z,43.83
2022-12-10T16:03:04.337Z,29.77
2022-12-10T16:05:37.580Z,37.23
2022-12-10T16:08:26.109Z,34.73
2022-12-10T16:10:57.383Z,35.37
2022-12-10T16:13:36.123Z,32.10
2022-12-10T16:16:09.660Z,27.27
2022-12-10T16:18:38.201Z,32.20
2022-12-10T16:21:07.961Z,27.03
2022-12-10T16:23:35.799Z,27.60
2022-12-10T16:26:03.739Z,31.20
2022-12-10T16:28:31.112Z,30.30
2022-12-10T16:31:00.183Z,27.50
2022-12-10T16:33:29.365Z,27.73
2022-12-10T16:36:03.211Z,32.03
2022-12-10T16:38:30.619Z,28.40
2022-12-10T16:40:58.529Z,26.97
2022-12-10T16:43:33.883Z,28.23
2022-12-10T16:46:01.378Z,29.13
2022-12-10T16:48:28.793Z,33.30
2022-12-10T16:51:03.840Z,30.80
2022-12-10T16:53:36.951Z,28.30
2022-12-10T16:56:06.606Z,28.03
2022-12-10T16:58:34.034Z,28.07
2022-12-10T17:01:02.343Z,28.40
2022-12-10T17:03:31.581Z,28.47
2022-12-10T17:06:02.004Z,28.47
2022-12-10T17:08:30.250Z,31.93
2022-12-10T17:11:16.892Z,29.50
2022-12-10T17:13:46.048Z,28.00
2022-12-10T17:16:22.545Z,26.87
2022-12-10T17:18:50.077Z,27.67
2022-12-10T17:21:17.643Z,28.80
2022-12-10T17:23:45.278Z,28.67
2022-12-10T17:26:28.146Z,31.80
2022-12-10T17:29:03.761Z,35.50
2022-12-10T17:31:32.063Z,71.83
2022-12-10T17:33:59.843Z,36.23
2022-12-10T17:36:27.879Z,44.60
2022-12-10T17:38:55.332Z,46.63
2022-12-10T17:41:22.796Z,49.67
2022-12-10T17:43:50.925Z,58.53
2022-12-10T17:46:24.161Z,67.10
2022-12-10T17:48:52.842Z,45.30
2022-12-10T17:51:20.455Z,48.23
2022-12-10T17:53:48.184Z,38.73
2022-12-10T17:56:22.025Z,30.60
2022-12-10T17:58:51.390Z,34.03
2022-12-10T18:01:20.824Z,35.67
2022-12-10T18:03:49.048Z,29.97
2022-12-10T18:06:21.965Z,30.30
2022-12-10T18:08:50.246Z,32.20
2022-12-10T18:11:24.875Z,37.27
2022-12-10T18:13:52.691Z,30.70
2022-12-10T18:16:32.404Z,30.43
2022-12-10T18:19:04.582Z,34.20
2022-12-10T18:21:32.019Z,30.50
2022-12-10T18:24:00.380Z,30.33
2022-12-10T18:26:27.872Z,29.33
2022-12-10T18:29:00.405Z,36.17
2022-12-10T18:31:32.099Z,33.27
2022-12-10T18:34:05.894Z,38.90
2022-12-10T18:36:38.157Z,39.03
2022-12-10T18:39:34.911Z,34.00
2022-12-10T18:42:02.407Z,29.87
2022-12-10T18:44:30.670Z,33.40
2022-12-10T18:46:59.852Z,32.90
2022-12-10T18:49:28.718Z,32.57
2022-12-10T18:51:56.369Z,28.33
2022-12-10T18:54:23.903Z,30.07
2022-12-10T18:57:24.547Z,29.10
2022-12-10T18:59:38.954Z,39.47
2022-12-10T19:02:07.137Z,31.80
2022-12-10T19:04:34.758Z,28.63
2022-12-10T19:07:02.566Z,28.47
2022-12-10T19:09:32.671Z,31.17
2022-12-10T19:12:00.378Z,34.43
2022-12-10T19:14:27.767Z,29.53
2022-12-10T19:16:55.257Z,31.67
2022-12-10T19:19:22.696Z,31.83
2022-12-10T19:21:50.198Z,28.93
2022-12-10T19:24:17.836Z,28.40
2022-12-10T19:26:45.771Z,30.97
2022-12-10T19:29:19.571Z,32.37
2022-12-10T19:31:47.281Z,29.77
2022-12-10T19:34:17.357Z,29.73
2022-12-10T19:36:45.738Z,30.50
2022-12-10T19:39:24.917Z,30.03
2022-12-10T19:41:55.291Z,28.20
2022-12-10T19:44:22.889Z,27.07
2022-12-10T19:46:51.311Z,28.47
2022-12-10T19:49:20.400Z,29.97
2022-12-10T19:51:48.320Z,29.40
2022-12-10T19:54:16.389Z,32.17
2022-12-10T19:56:44.007Z,29.60
2022-12-10T19:59:19.238Z,32.03
2022-12-10T20:01:48.145Z,32.33
2022-12-10T20:04:17.761Z,33.67
2022-12-10T20:06:48.464Z,32.97
2022-12-10T20:09:30.035Z,31.67
2022-12-10T20:11:57.881Z,37.40
2022-12-10T20:14:25.411Z,33.10
2022-12-10T20:16:53.980Z,33.13
2022-12-10T20:19:24.295Z,28.50
2022-12-10T20:21:53.343Z,29.87
2022-12-10T20:24:21.111Z,31.40
2022-12-10T20:26:49.946Z,32.37
2022-12-10T20:29:23.985Z,33.70
2022-12-10T20:31:54.777Z,33.67
2022-12-10T20:34:24.152Z,37.20
2022-12-10T20:36:52.426Z,28.10
2022-12-10T20:39:30.134Z,29.53
2022-12-10T20:41:59.405Z,26.80
2022-12-10T20:44:28.621Z,34.83
2022-12-10T20:46:57.884Z,33.43
2022-12-10T20:49:27.448Z,31.77
2022-12-10T20:51:55.500Z,32.30
2022-12-10T20:54:23.029Z,27.90
2022-12-10T20:56:53.516Z,25.87
2022-12-10T20:59:20.988Z,26.40
2022-12-10T21:01:48.834Z,29.27
2022-12-10T21:04:16.555Z,30.10
2022-12-10T21:06:45.424Z,29.80
2022-12-10T21:09:13.765Z,30.43
2022-12-10T21:11:41.273Z,30.03
2022-12-10T21:14:18.366Z,31.27
2022-12-10T21:16:58.767Z,27.73
2022-12-10T21:19:26.979Z,29.07
2022-12-10T21:21:54.659Z,29.20
2022-12-10T21:24:22.693Z,29.87
2022-12-10T21:26:50.294Z,28.57
2022-12-10T21:29:17.700Z,27.20
2022-12-10T21:31:45.776Z,27.03
2022-12-10T21:34:13.270Z,27.17
2022-12-10T21:36:40.618Z,28.47
2022-12-10T21:39:08.474Z,30.00
2022-12-10T21:41:54.651Z,28.33
2022-12-10T21:44:22.098Z,28.77
2022-12-10T21:46:49.560Z,30.90
2022-12-10T21:49:17.186Z,29.43
2022-12-10T21:51:44.653Z,29.93
2022-12-10T21:54:12.228Z,29.80
2022-12-10T21:56:40.677Z,29.57
2022-12-10T21:59:08.305Z,30.50
2022-12-10T22:01:35.748Z,30.43
2022-12-10T22:04:03.195Z,30.93
2022-12-10T22:06:30.835Z,31.60
2022-12-10T22:08:58.803Z,31.90
2022-12-10T22:11:26.497Z,29.77
2022-12-10T22:13:56.081Z,31.20
2022-12-10T22:16:23.769Z,31.17
2022-12-10T22:18:51.316Z,32.10
2022-12-10T22:21:23.746Z,30.63
2022-12-10T22:23:55.548Z,30.97
2022-12-10T22:26:23.632Z,30.93
2022-12-10T22:28:51.167Z,31.33
2022-12-10T22:31:20.103Z,31.83
2022-12-10T22:33:47.698Z,32.30
2022-12-10T22:36:15.889Z,32.03
2022-12-10T22:38:43.844Z,31.90
2022-12-10T22:41:12.074Z,33.17
2022-12-10T22:43:55.024Z,32.90
2022-12-10T22:46:22.563Z,32.33
2022-12-10T22:48:50.195Z,33.57
2022-12-10T22:51:17.880Z,32.40
2022-12-10T22:53:45.789Z,32.70
2022-12-10T22:56:15.259Z,32.93
2022-12-10T22:58:43.823Z,32.40
2022-12-10T23:01:19.971Z,35.40
2022-12-10T23:03:50.488Z,33.37
2022-12-10T23:06:18.696Z,32.30
2022-12-10T23:08:46.171Z,34.10
2022-12-10T23:11:15.381Z,33.63
2022-12-10T23:13:43.505Z,33.77
2022-12-10T23:16:15.395Z,36.17
2022-12-10T23:18:44.795Z,34.77
2022-12-10T23:21:23.182Z,34.20
2022-12-10T23:23:51.055Z,35.80
2022-12-10T23:26:19.248Z,34.93
2022-12-10T23:28:48.611Z,35.23
2022-12-10T23:31:18.366Z,34.33
2022-12-10T23:33:45.940Z,34.67
2022-12-10T23:36:13.355Z,34.77
2022-12-10T23:38:40.872Z,36.37
2022-12-10T23:41:11.206Z,33.40
2022-12-10T23:43:39.180Z,35.77
2022-12-10T23:46:08.765Z,34.90
2022-12-10T23:48:36.486Z,34.00
2022-12-10T23:51:04.041Z,35.47
2022-12-10T23:53:32.501Z,34.13
2022-12-10T23:56:00.158Z,32.70
2022-12-10T23:58:27.672Z,34.03
